Time;durP1;ratioP1;P1;durP2;ratioP2;P2;SDS_P1;SDS_P2;PMS_P1;PMS_P2;Temp;Humidity;BMP_temperature;BMP_pressure;BME280_temperature;BME280_humidity;BME280_pressure;Samples;Min_cycle;Max_cycle;Signal;HPM_P1;HPM_P2
2021/07/03 00:01:52;;;;;;;33.63;20.85;;;14.00;99.90;;;;;;5021251;28;20066;-78
2021/07/03 00:04:40;;;;;;;32.70;22.05;;;13.90;99.90;;;;;;5014401;28;20030;-80
2021/07/03 00:07:27;;;;;;;32.28;22.02;;;13.90;99.90;;;;;;5011998;28;20037;-79
2021/07/03 00:10:15;;;;;;;30.63;21.17;;;13.90;99.90;;;;;;5024608;28;20046;-80
2021/07/03 00:13:03;;;;;;;31.95;21.60;;;15.80;99.90;;;;;;5014745;28;20093;-79
2021/07/03 00:15:50;;;;;;;30.90;20.90;;;13.90;99.90;;;;;;5021827;28;20140;-79
2021/07/03 00:18:38;;;;;;;31.23;20.98;;;13.80;99.90;;;;;;5007267;28;20030;-79
2021/07/03 00:21:25;;;;;;;29.52;20.95;;;13.70;99.90;;;;;;5018307;28;20038;-81
2021/07/03 00:24:12;;;;;;;27.50;19.85;;;13.60;99.90;;;;;;5022472;28;20032;-81
2021/07/03 00:26:59;;;;;;;31.88;20.88;;;13.60;99.90;;;;;;5017631;28;20049;-79
2021/07/03 00:29:47;;;;;;;34.42;22.23;;;13.60;99.90;;;;;;5014353;28;20090;-80
2021/07/03 00:32:35;;;;;;;32.95;19.92;;;13.50;99.90;;;;;;5020021;28;20041;-80
2021/07/03 00:35:23;;;;;;;31.58;20.02;;;13.50;99.90;;;;;;5012246;28;20045;-80
2021/07/03 00:38:10;;;;;;;28.33;19.75;;;13.40;99.90;;;;;;5013347;28;20041;-79
2021/07/03 00:40:57;;;;;;;30.38;20.20;;;13.10;99.90;;;;;;5018226;28;20061;-79
2021/07/03 00:43:44;;;;;;;26.90;19.73;;;13.20;99.90;;;;;;5039021;28;20090;-81
2021/07/03 00:46:32;;;;;;;28.67;19.10;;;13.20;99.90;;;;;;5018685;28;20026;-80
2021/07/03 00:49:20;;;;;;;30.38;20.58;;;13.20;99.90;;;;;;5021038;28;20085;-79
2021/07/03 00:52:10;;;;;;;32.22;20.98;;;13.20;99.90;;;;;;5013758;28;20082;-80
2021/07/03 00:54:57;;;;;;;32.33;20.48;;;13.20;99.90;;;;;;5027694;28;20054;-80
2021/07/03 00:57:45;;;;;;;30.00;19.00;;;13.30;99.90;;;;;;5008108;28;20036;-80
2021/07/03 01:00:32;;;;;;;28.67;18.15;;;13.20;99.90;;;;;;5010557;28;20086;-79
2021/07/03 01:03:21;;;;;;;30.67;18.33;;;13.10;99.90;;;;;;5013095;28;20027;-81
2021/07/03 01:06:08;;;;;;;30.75;19.25;;;13.10;99.90;;;;;;5011122;28;20161;-81
2021/07/03 01:08:55;;;;;;;29.45;19.65;;;13.20;99.90;;;;;;5016137;28;20032;-79
2021/07/03 01:11:42;;;;;;;28.80;18.20;;;13.10;99.90;;;;;;5017701;28;20048;-80
2021/07/03 01:14:30;;;;;;;34.63;18.25;;;13.10;99.90;;;;;;5021923;28;20044;-80
2021/07/03 01:17:18;;;;;;;27.63;18.25;;;14.40;99.90;;;;;;5019895;28;20701;-80
2021/07/03 01:20:08;;;;;;;27.20;17.88;;;13.00;99.90;;;;;;5022340;28;20259;-80
2021/07/03 01:22:56;;;;;;;27.02;18.20;;;12.90;99.90;;;;;;5015694;28;20098;-79
2021/07/03 01:25:43;;;;;;;32.05;21.25;;;12.90;99.90;;;;;;5026819;28;20404;-79
2021/07/03 01:28:30;;;;;;;35.53;20.48;;;12.90;99.90;;;;;;5013752;28;20096;-78
2021/07/03 01:31:17;;;;;;;33.97;21.75;;;12.90;99.90;;;;;;5017326;28;20109;-80
2021/07/03 01:34:05;;;;;;;28.70;20.73;;;12.90;99.90;;;;;;5022309;28;20026;-79
2021/07/03 01:36:52;;;;;;;37.03;21.75;;;13.00;99.90;;;;;;5012838;28;20082;-80
2021/07/03 01:39:41;;;;;;;34.17;21.85;;;12.90;99.90;;;;;;5009444;28;20065;-80
2021/07/03 01:42:28;;;;;;;32.60;21.30;;;14.20;99.90;;;;;;5020398;28;20042;-80
2021/07/03 01:45:15;;;;;;;33.25;21.02;;;12.90;99.90;;;;;;5021339;28;20038;-81
2021/07/03 01:48:02;;;;;;;30.42;22.13;;;12.90;99.90;;;;;;5033288;28;20017;-81
2021/07/03 01:50:50;;;;;;;39.33;23.80;;;12.80;99.90;;;;;;5036784;28;20630;-81
2021/07/03 01:53:37;;;;;;;43.08;25.90;;;12.80;99.90;;;;;;5021547;28;20030;-80
2021/07/03 01:56:26;;;;;;;39.88;25.17;;;12.90;99.90;;;;;;5025984;28;20022;-79
2021/07/03 01:59:13;;;;;;;45.58;26.73;;;12.80;99.90;;;;;;5025223;28;20086;-79
2021/07/03 02:02:02;;;;;;;36.63;24.42;;;12.80;99.90;;;;;;5019801;28;20030;-79
2021/07/03 02:04:50;;;;;;;39.72;25.25;;;12.80;99.90;;;;;;5023145;28;20102;-81
2021/07/03 02:07:37;;;;;;;41.58;25.15;;;12.80;99.90;;;;;;5020405;28;20025;-80
2021/07/03 02:10:24;;;;;;;36.92;22.52;;;12.80;99.90;;;;;;5019187;28;20697;-82
2021/07/03 02:13:12;;;;;;;39.92;24.55;;;12.80;99.90;;;;;;5016332;28;20064;-80
2021/07/03 02:16:00;;;;;;;32.55;21.83;;;12.80;99.90;;;;;;5023773;28;20017;-79
2021/07/03 02:18:47;;;;;;;31.70;21.23;;;12.80;99.90;;;;;;5015497;28;20054;-80
2021/07/03 02:21:34;;;;;;;31.13;19.67;;;12.80;99.90;;;;;;5017086;28;20153;-80
2021/07/03 02:24:21;;;;;;;28.60;18.65;;;12.80;99.90;;;;;;5020654;28;20097;-81
2021/07/03 02:27:08;;;;;;;34.30;19.52;;;12.70;99.90;;;;;;5018025;28;20026;-79
2021/07/03 02:29:57;;;;;;;30.02;19.48;;;12.70;99.90;;;;;;5021806;28;20042;-80
2021/07/03 02:32:46;;;;;;;33.15;18.90;;;12.60;99.90;;;;;;5015156;28;20090;-79
2021/07/03 02:35:33;;;;;;;34.72;19.67;;;12.50;99.90;;;;;;5016288;28;20033;-78
2021/07/03 02:38:20;;;;;;;29.45;19.67;;;13.40;99.90;;;;;;5023316;28;20022;-78
2021/07/03 02:41:08;;;;;;;32.88;19.92;;;12.60;99.90;;;;;;5014370;28;20090;-80
2021/07/03 02:43:58;;;;;;;29.80;19.83;;;12.60;99.90;;;;;;5017408;28;20030;-80
2021/07/03 02:46:47;;;;;;;32.70;20.85;;;12.50;99.90;;;;;;5026128;28;20018;-80
2021/07/03 02:49:34;;;;;;;31.15;19.02;;;12.40;99.90;;;;;;5025690;28;20053;-79
2021/07/03 02:52:21;;;;;;;34.53;19.98;;;12.20;99.90;;;;;;5030198;28;20092;-79
2021/07/03 02:55:10;;;;;;;31.05;20.83;;;12.20;99.90;;;;;;5017633;28;20034;-78
2021/07/03 02:57:57;;;;;;;31.42;20.60;;;12.20;99.90;;;;;;5007801;28;20033;-81
2021/07/03 03:00:44;;;;;;;35.17;22.10;;;12.30;99.90;;;;;;5011915;28;20024;-79
2021/07/03 03:03:33;;;;;;;34.60;21.92;;;12.30;99.90;;;;;;5023078;28;20038;-81
2021/07/03 03:06:20;;;;;;;33.83;21.15;;;12.20;99.90;;;;;;5028815;28;20041;-80
2021/07/03 03:09:07;;;;;;;33.75;21.55;;;13.30;99.90;;;;;;5031196;28;20032;-81
2021/07/03 03:11:54;;;;;;;33.97;21.48;;;12.20;99.90;;;;;;5031179;28;20081;-80
2021/07/03 03:14:41;;;;;;;31.02;20.95;;;12.20;99.90;;;;;;5031876;28;20068;-81
2021/07/03 03:17:28;;;;;;;35.83;21.52;;;12.20;99.90;;;;;;5031405;28;20086;-80
2021/07/03 03:20:17;;;;;;;32.83;21.38;;;12.20;99.90;;;;;;5014959;28;20053;-79
2021/07/03 03:23:04;;;;;;;31.90;20.83;;;12.20;99.90;;;;;;5024683;28;20057;-79
2021/07/03 03:25:52;;;;;;;38.08;22.13;;;12.30;99.90;;;;;;5018354;28;20086;-81
2021/07/03 03:28:39;;;;;;;29.13;20.45;;;12.30;99.90;;;;;;5026785;28;20053;-81
2021/07/03 03:31:27;;;;;;;36.60;20.25;;;12.30;99.90;;;;;;5014760;28;20086;-80
2021/07/03 03:34:14;;;;;;;31.27;19.67;;;12.30;99.90;;;;;;5015592;28;20057;-78
2021/07/03 03:37:03;;;;;;;29.55;19.10;;;12.30;99.90;;;;;;5026640;28;20030;-80
2021/07/03 03:39:50;;;;;;;32.35;19.90;;;12.30;99.90;;;;;;5034903;28;20029;-79
2021/07/03 03:42:37;;;;;;;26.27;18.38;;;12.30;99.90;;;;;;5027298;28;20091;-81
2021/07/03 03:45:25;;;;;;;33.97;20.67;;;12.30;99.90;;;;;;5019216;28;20058;-80
2021/07/03 03:48:13;;;;;;;34.95;20.40;;;12.90;99.90;;;;;;5024727;28;20030;-82
2021/07/03 03:51:00;;;;;;;39.05;22.63;;;12.30;99.90;;;;;;5009651;28;20022;-81
2021/07/03 03:53:48;;;;;;;31.98;20.88;;;12.40;99.90;;;;;;5017048;28;20064;-80
2021/07/03 03:56:35;;;;;;;31.73;19.63;;;12.40;99.90;;;;;;5010574;28;20057;-80
2021/07/03 03:59:41;;;;;;;32.88;20.27;;;12.40;99.90;;;;;;5036516;28;20086;-81
2021/07/03 04:02:28;;;;;;;32.78;19.85;;;12.30;99.90;;;;;;5036601;28;20037;-80
2021/07/03 04:05:16;;;;;;;29.48;18.70;;;12.50;99.90;;;;;;5015524;28;20026;-79
2021/07/03 04:08:04;;;;;;;32.17;19.83;;;12.50;99.90;;;;;;5030355;28;20105;-81
2021/07/03 04:10:52;;;;;;;28.30;18.98;;;12.60;99.90;;;;;;5013573;28;20064;-78
2021/07/03 04:13:40;;;;;;;27.98;18.30;;;12.60;99.90;;;;;;5018761;28;20090;-80
2021/07/03 04:16:27;;;;;;;35.35;18.85;;;12.70;99.90;;;;;;5020310;28;20049;-81
2021/07/03 04:19:14;;;;;;;31.83;19.08;;;12.60;99.90;;;;;;5026782;28;20035;-82
2021/07/03 04:22:01;;;;;;;30.00;18.08;;;12.60;99.90;;;;;;5021453;28;20049;-81
2021/07/03 04:24:48;;;;;;;28.92;18.73;;;12.50;99.90;;;;;;5021164;28;20028;-82
2021/07/03 04:27:39;;;;;;;31.02;19.90;;;12.50;99.90;;;;;;5024563;28;20029;-79
2021/07/03 04:30:26;;;;;;;34.33;19.40;;;12.60;99.90;;;;;;5009389;28;20065;-82
2021/07/03 04:33:13;;;;;;;33.70;21.05;;;12.70;99.90;;;;;;5029473;28;20085;-80
2021/07/03 04:38:35;;;;;;;30.40;20.70;;;12.70;99.90;;;;;;5030470;28;20049;-87
2021/07/03 04:41:22;;;;;;;35.00;21.00;;;12.80;99.90;;;;;;5020240;28;20091;-85
2021/07/03 04:44:11;;;;;;;34.15;21.90;;;12.80;99.90;;;;;;5022263;28;20421;-85
2021/07/03 04:46:58;;;;;;;31.55;19.67;;;12.90;99.90;;;;;;5039251;28;20059;-87
2021/07/03 04:49:45;;;;;;;35.10;21.08;;;12.90;99.90;;;;;;5033349;28;20041;-86
2021/07/03 04:52:32;;;;;;;31.92;20.35;;;13.00;99.90;;;;;;5034130;28;20139;-85
2021/07/03 04:55:19;;;;;;;34.38;21.58;;;13.10;99.90;;;;;;5033744;28;20442;-86
2021/07/03 04:58:07;;;;;;;35.58;21.27;;;12.90;99.90;;;;;;5053589;28;20047;-86
2021/07/03 05:00:55;;;;;;;32.42;22.02;;;12.80;99.90;;;;;;5036363;28;20620;-86
2021/07/03 05:03:42;;;;;;;36.88;21.65;;;12.80;99.90;;;;;;5048981;28;20049;-86
2021/07/03 05:06:29;;;;;;;34.30;21.75;;;12.90;99.90;;;;;;5033229;28;20139;-84
2021/07/03 05:09:16;;;;;;;33.88;22.42;;;12.90;99.90;;;;;;5042699;28;20529;-85
2021/07/03 05:12:04;;;;;;;35.05;22.45;;;12.90;99.90;;;;;;5050564;28;20159;-86
2021/07/03 05:14:51;;;;;;;33.60;21.98;;;13.00;99.90;;;;;;5032515;28;20525;-87
2021/07/03 05:17:39;;;;;;;35.97;22.30;;;13.10;99.90;;;;;;5035037;28;20123;-86
2021/07/03 05:20:27;;;;;;;34.28;22.02;;;13.20;99.90;;;;;;5045343;28;20051;-85
2021/07/03 05:23:14;;;;;;;31.27;21.35;;;13.30;99.90;;;;;;5043880;28;20176;-86
2021/07/03 05:26:01;;;;;;;32.65;20.27;;;13.40;99.90;;;;;;5037195;28;20046;-86
2021/07/03 05:28:48;;;;;;;28.48;20.55;;;13.60;99.90;;;;;;5035863;28;20037;-87
2021/07/03 05:31:35;;;;;;;28.67;20.90;;;13.60;99.90;;;;;;5038730;28;20047;-85
2021/07/03 05:34:24;;;;;;;33.17;20.50;;;13.60;99.90;;;;;;5032560;28;20053;-86
2021/07/03 05:37:11;;;;;;;28.58;19.77;;;13.60;99.90;;;;;;5049358;28;20124;-87
2021/07/03 05:39:58;;;;;;;25.83;17.23;;;13.70;99.90;;;;;;5056232;28;20061;-85
2021/07/03 05:42:46;;;;;;;22.55;17.17;;;13.80;99.90;;;;;;5055239;28;21138;-87
2021/07/03 05:45:33;;;;;;;26.27;17.45;;;13.90;99.90;;;;;;5044433;28;20048;-87
2021/07/03 05:48:20;;;;;;;27.02;17.95;;;14.00;99.90;;;;;;5050592;28;20051;-86
2021/07/03 05:51:10;;;;;;;28.75;18.75;;;14.20;99.90;;;;;;5055508;28;20114;-87
2021/07/03 05:53:57;;;;;;;23.38;16.10;;;14.20;99.90;;;;;;5060201;28;20037;-86
2021/07/03 05:56:44;;;;;;;28.58;18.33;;;14.30;99.90;;;;;;5063330;28;20133;-87
2021/07/03 05:59:31;;;;;;;27.13;19.77;;;14.40;99.90;;;;;;5063597;28;20128;-87
2021/07/03 06:02:18;;;;;;;27.25;18.95;;;14.40;99.90;;;;;;5061395;28;20044;-86
2021/07/03 06:05:07;;;;;;;26.65;19.13;;;14.40;99.90;;;;;;5057556;28;20048;-87
2021/07/03 06:07:55;;;;;;;30.33;20.02;;;14.50;99.90;;;;;;5066561;28;20127;-86
2021/07/03 06:10:42;;;;;;;27.33;18.75;;;14.50;99.90;;;;;;5067087;28;20052;-87
2021/07/03 06:13:30;;;;;;;32.72;19.65;;;14.40;99.90;;;;;;5067575;28;20048;-87
2021/07/03 06:16:17;;;;;;;26.85;18.92;;;14.30;99.90;;;;;;5068262;28;20060;-87
2021/07/03 06:19:04;;;;;;;26.90;19.50;;;14.30;99.90;;;;;;5066545;28;20048;-87
2021/07/03 06:21:51;;;;;;;28.27;20.85;;;14.30;99.90;;;;;;5091319;28;20104;-85
2021/07/03 06:24:40;;;;;;;28.40;20.23;;;14.40;99.90;;;;;;5077025;28;20087;-85
2021/07/03 06:27:27;;;;;;;31.13;21.90;;;14.40;99.90;;;;;;5081478;28;20524;-85
2021/07/03 06:30:16;;;;;;;29.70;20.15;;;14.40;99.90;;;;;;5074591;28;20131;-85
2021/07/03 06:33:03;;;;;;;31.38;20.77;;;14.60;99.90;;;;;;5060530;28;20513;-86
2021/07/03 06:35:50;;;;;;;27.83;20.25;;;14.60;99.90;;;;;;5059833;28;20522;-86
2021/07/03 06:38:37;;;;;;;26.85;20.67;;;14.70;99.90;;;;;;5060738;28;20119;-85
2021/07/03 06:41:25;;;;;;;24.88;17.17;;;14.80;99.90;;;;;;5074382;28;20047;-86
2021/07/03 06:44:13;;;;;;;26.52;18.38;;;14.90;99.90;;;;;;5060775;28;20051;-85
2021/07/03 06:47:00;;;;;;;25.70;19.23;;;15.10;99.90;;;;;;5075386;28;20403;-85
2021/07/03 06:49:47;;;;;;;28.23;20.90;;;15.20;99.90;;;;;;5060097;28;20043;-86
2021/07/03 06:52:34;;;;;;;25.88;17.10;;;15.30;99.90;;;;;;5075475;28;20404;-85
2021/07/03 06:55:22;;;;;;;26.23;17.95;;;15.40;99.90;;;;;;5059944;28;20049;-85
2021/07/03 06:58:10;;;;;;;26.58;19.02;;;15.60;99.90;;;;;;5074126;28;20589;-86
2021/07/03 07:00:58;;;;;;;25.60;18.40;;;15.60;99.90;;;;;;5059117;28;20428;-85
2021/07/03 07:03:45;;;;;;;28.92;18.65;;;15.60;99.90;;;;;;5059616;28;20045;-85
2021/07/03 07:06:33;;;;;;;26.52;18.13;;;15.70;99.90;;;;;;5058365;28;20055;-85
2021/07/03 07:09:20;;;;;;;26.02;18.65;;;15.80;99.90;;;;;;5059299;28;20056;-86
2021/07/03 07:12:09;;;;;;;28.70;17.85;;;15.90;99.90;;;;;;5058743;28;20158;-85
2021/07/03 07:14:57;;;;;;;24.58;17.95;;;16.00;99.90;;;;;;5059926;28;20048;-85
2021/07/03 07:17:44;;;;;;;24.55;17.08;;;16.10;99.90;;;;;;5060337;28;20517;-86
2021/07/03 07:20:31;;;;;;;27.00;18.02;;;16.10;99.90;;;;;;5059647;28;20120;-87
2021/07/03 07:23:18;;;;;;;24.38;17.77;;;16.20;99.90;;;;;;5057794;28;20424;-87
2021/07/03 07:26:06;;;;;;;27.80;19.13;;;16.40;99.90;;;;;;5058389;28;20499;-85
2021/07/03 07:28:53;;;;;;;23.60;16.63;;;16.40;99.90;;;;;;5059268;28;20429;-86
2021/07/03 07:31:42;;;;;;;27.15;19.13;;;16.50;99.90;;;;;;5071558;28;20109;-86
2021/07/03 07:34:29;;;;;;;28.30;19.75;;;16.60;99.90;;;;;;5058136;28;20043;-85
2021/07/03 07:37:16;;;;;;;35.80;20.92;;;16.70;99.90;;;;;;5059061;28;20044;-87
2021/07/03 07:40:04;;;;;;;29.65;20.38;;;16.70;99.90;;;;;;5059314;28;20570;-85
2021/07/03 07:42:51;;;;;;;31.77;19.67;;;16.90;99.90;;;;;;5058058;28;20052;-86
2021/07/03 07:45:38;;;;;;;27.92;18.38;;;17.00;99.90;;;;;;5058527;28;20139;-85
2021/07/03 07:48:28;;;;;;;30.67;20.38;;;17.10;99.90;;;;;;5057837;28;20051;-86
2021/07/03 07:51:17;;;;;;;31.33;19.75;;;17.10;99.90;;;;;;5072730;28;20055;-86
2021/07/03 07:54:04;;;;;;;30.85;20.08;;;17.20;99.90;;;;;;5057787;28;20052;-85
2021/07/03 07:56:51;;;;;;;35.65;21.00;;;17.40;99.90;;;;;;5057911;28;20127;-85
2021/07/03 07:59:38;;;;;;;32.17;20.55;;;17.50;99.90;;;;;;5057638;28;20139;-86
2021/07/03 08:02:25;;;;;;;29.63;20.15;;;17.50;99.90;;;;;;5058201;28;20048;-86
2021/07/03 08:05:14;;;;;;;28.45;19.73;;;17.60;99.90;;;;;;5058843;28;20516;-85
2021/07/03 08:08:01;;;;;;;33.53;20.38;;;17.70;99.90;;;;;;5057826;28;20124;-85
2021/07/03 08:10:49;;;;;;;30.25;18.65;;;17.80;99.90;;;;;;5058156;28;20076;-86
2021/07/03 08:13:36;;;;;;;28.83;18.42;;;17.90;99.90;;;;;;5051398;28;20043;-85
2021/07/03 08:16:23;;;;;;;30.25;17.10;;;18.10;99.90;;;;;;5037013;28;20430;-86
2021/07/03 08:19:10;;;;;;;31.13;19.40;;;18.20;99.90;;;;;;5051486;28;20052;-86
2021/07/03 08:21:59;;;;;;;30.33;18.88;;;18.20;99.90;;;;;;5038596;28;20041;-86
2021/07/03 08:24:46;;;;;;;26.80;17.20;;;18.30;99.90;;;;;;5038572;28;20045;-86
2021/07/03 08:27:36;;;;;;;27.23;17.52;;;18.40;99.90;;;;;;5037202;28;20283;-85
2021/07/03 08:30:23;;;;;;;25.40;17.95;;;18.50;99.90;;;;;;5038480;28;20123;-86
2021/07/03 08:33:10;;;;;;;27.50;17.52;;;18.60;99.90;;;;;;5065999;28;20050;-86
2021/07/03 08:35:57;;;;;;;26.30;17.70;;;18.60;99.90;;;;;;5057156;28;20048;-86
2021/07/03 08:38:46;;;;;;;25.48;15.45;;;18.70;99.90;;;;;;5037198;28;20071;-86
2021/07/03 08:41:34;;;;;;;26.42;16.77;;;18.70;99.90;;;;;;5050127;28;20077;-86
2021/07/03 08:44:21;;;;;;;28.00;18.02;;;18.90;99.90;;;;;;5036786;28;20048;-87
2021/07/03 08:47:09;;;;;;;20.75;14.18;;;18.80;99.90;;;;;;5037161;28;20049;-86
2021/07/03 08:49:58;;;;;;;23.27;15.43;;;19.00;99.90;;;;;;5052310;28;20051;-85
2021/07/03 08:52:46;;;;;;;22.83;15.85;;;19.20;99.90;;;;;;5037554;28;20090;-85
2021/07/03 08:55:35;;;;;;;23.25;16.80;;;19.30;99.90;;;;;;5038343;28;20429;-86
2021/07/03 08:58:22;;;;;;;24.98;15.95;;;19.50;99.90;;;;;;5037355;28;20067;-86
2021/07/03 09:01:10;;;;;;;24.95;15.15;;;19.60;99.90;;;;;;5038755;28;20053;-86
2021/07/03 09:03:57;;;;;;;19.83;13.13;;;19.60;99.90;;;;;;5053199;28;20045;-87
2021/07/03 09:06:44;;;;;;;22.17;14.13;;;19.60;99.90;;;;;;5037994;28;20049;-86
2021/07/03 09:09:31;;;;;;;22.55;14.77;;;19.70;99.90;;;;;;5037479;28;20049;-87
2021/07/03 09:12:28;;;;;;;17.08;11.13;;;19.90;99.90;;;;;;5053088;28;20051;-87
2021/07/03 09:15:17;;;;;;;23.33;12.70;;;20.10;99.90;;;;;;5037317;28;20425;-85
2021/07/03 09:18:06;;;;;;;13.40;10.30;;;20.20;99.90;;;;;;5038516;28;20063;-86
2021/07/03 09:20:54;;;;;;;18.30;12.35;;;20.30;99.90;;;;;;5036711;28;20171;-87
2021/07/03 09:23:41;;;;;;;19.42;11.77;;;20.40;99.90;;;;;;5038089;28;20127;-86
2021/07/03 09:26:28;;;;;;;18.90;12.07;;;20.20;99.90;;;;;;5037607;28;20053;-87
2021/07/03 09:29:17;;;;;;;19.65;12.50;;;20.20;99.90;;;;;;5039338;28;20126;-87
2021/07/03 09:32:07;;;;;;;18.27;11.88;;;20.20;99.90;;;;;;5041421;28;20041;-86
2021/07/03 09:34:54;;;;;;;12.75;8.65;;;20.20;99.90;;;;;;5055282;28;20059;-86
2021/07/03 09:37:42;;;;;;;19.88;12.32;;;20.40;99.90;;;;;;5055417;28;20119;-86
2021/07/03 09:40:30;;;;;;;17.80;10.23;;;20.30;99.90;;;;;;5062129;28;20057;-87
2021/07/03 09:43:17;;;;;;;18.50;12.18;;;20.50;99.90;;;;;;5062001;28;20050;-87
2021/07/03 09:46:06;;;;;;;17.58;11.45;;;20.60;99.90;;;;;;5075757;28;20441;-85
2021/07/03 09:48:54;;;;;;;15.82;10.07;;;20.70;99.90;;;;;;5062843;28;20183;-86
2021/07/03 09:51:44;;;;;;;16.60;10.67;;;20.90;99.90;;;;;;5062643;28;20048;-87
2021/07/03 09:54:32;;;;;;;18.55;10.70;;;20.70;99.90;;;;;;5062359;28;20123;-86
2021/07/03 09:57:21;;;;;;;14.35;9.00;;;20.60;99.90;;;;;;5063507;28;20048;-87
2021/07/03 10:00:10;;;;;;;14.07;9.30;;;20.80;99.90;;;;;;5062522;28;20047;-87
2021/07/03 10:03:08;;;;;;;12.15;7.53;;;21.20;99.90;;;;;;5063495;28;20051;-86
2021/07/03 10:05:58;;;;;;;11.05;6.82;;;21.50;99.90;;;;;;5077831;28;20206;-86
2021/07/03 10:08:50;;;;;;;13.48;7.93;;;21.80;99.90;;;;;;5078724;28;20051;-86
2021/07/03 10:11:43;;;;;;;12.00;7.15;;;22.00;99.90;;;;;;5071862;28;20184;-86
2021/07/03 10:14:36;;;;;;;12.02;7.10;;;22.10;99.90;;;;;;5042095;28;20417;-86
2021/07/03 10:17:24;;;;;;;12.80;7.10;;;22.10;99.90;;;;;;5043246;28;20049;-87
2021/07/03 10:20:15;;;;;;;9.70;6.82;;;22.30;99.90;;;;;;5042775;28;20099;-87
2021/07/03 10:23:03;;;;;;;10.57;5.80;;;22.50;99.90;;;;;;5041820;28;20041;-86
2021/07/03 10:25:50;;;;;;;8.50;5.47;;;22.60;99.90;;;;;;5069782;28;20041;-87
2021/07/03 10:28:41;;;;;;;11.85;6.75;;;22.90;99.90;;;;;;5041997;28;20057;-87
2021/07/03 10:31:32;;;;;;;9.77;6.05;;;22.80;99.70;;;;;;5056096;28;20136;-88
2021/07/03 10:34:30;;;;;;;10.50;6.10;;;22.90;99.90;;;;;;5061874;28;20470;-87
2021/07/03 10:37:32;;;;;;;9.32;5.55;;;23.20;99.90;;;;;;5064156;28;20037;-86
2021/07/03 10:40:22;;;;;;;8.80;4.97;;;23.20;99.90;;;;;;5075919;28;20040;-86
2021/07/03 10:43:13;;;;;;;8.43;5.72;;;23.50;99.90;;;;;;5062754;28;20048;-87
2021/07/03 10:46:00;;;;;;;9.63;5.60;;;23.40;99.30;;;;;;5063382;28;20501;-87
2021/07/03 10:48:54;;;;;;;11.85;7.10;;;23.30;99.60;;;;;;5063444;28;20044;-87
2021/07/03 10:51:44;;;;;;;11.93;6.82;;;23.20;99.10;;;;;;5064155;28;20044;-88
2021/07/03 10:54:32;;;;;;;10.15;6.63;;;23.20;99.70;;;;;;5062030;28;20066;-87
2021/07/03 10:57:25;;;;;;;10.98;6.47;;;23.00;98.70;;;;;;5062548;28;20513;-88
2021/07/03 11:00:20;;;;;;;7.60;4.82;;;23.50;98.90;;;;;;5063390;28;20052;-86
2021/07/03 11:03:12;;;;;;;10.32;6.57;;;22.70;99.90;;;;;;5063000;28;20138;-86
2021/07/03 11:06:11;;;;;;;10.18;6.30;;;22.50;99.10;;;;;;5064138;28;20119;-85
2021/07/03 11:08:58;;;;;;;8.00;5.57;;;22.70;99.90;;;;;;5062489;28;20402;-87
2021/07/03 11:11:47;;;;;;;9.65;5.60;;;22.70;99.30;;;;;;5061377;28;20175;-85
2021/07/03 11:14:34;;;;;;;8.85;5.55;;;22.80;99.90;;;;;;5061550;28;20104;-87
2021/07/03 11:17:23;;;;;;;9.05;5.50;;;23.00;99.90;;;;;;5076962;28;20059;-85
2021/07/03 11:20:22;;;;;;;9.60;6.20;;;23.20;99.20;;;;;;5061576;28;20118;-86
2021/07/03 11:23:11;;;;;;;8.57;4.88;;;23.00;97.80;;;;;;5069297;28;20033;-85
2021/07/03 11:25:58;;;;;;;8.88;5.05;;;23.00;98.80;;;;;;5076421;28;20568;-86
2021/07/03 11:28:51;;;;;;;9.82;5.03;;;22.90;98.50;;;;;;5057496;28;20564;-86
2021/07/03 11:31:39;;;;;;;10.30;5.78;;;23.00;98.50;;;;;;5057882;28;20584;-85
2021/07/03 11:34:27;;;;;;;11.35;6.20;;;22.90;98.10;;;;;;5039744;28;20560;-86
2021/07/03 11:37:14;;;;;;;7.90;4.93;;;23.00;97.90;;;;;;5037545;28;20075;-86
2021/07/03 11:40:04;;;;;;;11.10;6.35;;;23.00;99.50;;;;;;5037931;28;20052;-86
2021/07/03 11:42:54;;;;;;;10.88;5.53;;;23.00;99.00;;;;;;5038424;28;20048;-86
2021/07/03 11:45:42;;;;;;;8.68;5.60;;;23.00;99.60;;;;;;5053077;28;20045;-85
2021/07/03 11:48:30;;;;;;;8.60;4.82;;;23.10;98.90;;;;;;5039148;28;20048;-86
2021/07/03 11:51:17;;;;;;;7.70;5.75;;;23.20;99.90;;;;;;5040103;28;20049;-83
2021/07/03 11:54:04;;;;;;;9.27;4.85;;;23.40;97.40;;;;;;5037494;28;20414;-86
2021/07/03 11:56:56;;;;;;;8.65;5.30;;;23.60;98.00;;;;;;5038047;28;20692;-86
2021/07/03 11:59:43;;;;;;;8.55;5.28;;;23.90;99.90;;;;;;5052519;28;20052;-84
2021/07/03 12:02:32;;;;;;;8.77;4.65;;;24.20;98.90;;;;;;5037192;28;20157;-86
2021/07/03 12:05:23;;;;;;;7.38;4.50;;;24.20;97.70;;;;;;5037890;28;20577;-85
2021/07/03 12:08:12;;;;;;;7.38;4.40;;;24.30;95.40;;;;;;5052771;28;20190;-85
2021/07/03 12:11:02;;;;;;;7.43;4.60;;;24.10;96.40;;;;;;5052291;28;20564;-85
2021/07/03 12:13:50;;;;;;;7.18;4.55;;;24.20;95.50;;;;;;5058695;28;20040;-86
2021/07/03 12:16:37;;;;;;;9.13;3.83;;;23.90;94.90;;;;;;5058308;28;20056;-85
2021/07/03 12:19:26;;;;;;;8.10;4.43;;;24.00;96.90;;;;;;5057346;28;20051;-85
2021/07/03 12:22:14;;;;;;;6.33;4.03;;;24.20;95.80;;;;;;5057958;28;20044;-86
2021/07/03 12:25:13;;;;;;;6.28;3.95;;;24.30;96.20;;;;;;5057087;28;20041;-86
2021/07/03 12:28:02;;;;;;;7.60;4.05;;;24.40;95.90;;;;;;5058195;28;20056;-85
2021/07/03 12:30:49;;;;;;;6.72;3.78;;;24.40;96.70;;;;;;5057516;28;20040;-85
2021/07/03 12:33:39;;;;;;;8.95;4.35;;;24.30;95.40;;;;;;5038782;28;20504;-85
2021/07/03 12:36:27;;;;;;;;;;;24.10;93.70;;;;;;5038893;28;20254;-85
2021/07/03 12:39:18;;;;;;;8.60;4.72;;;24.00;96.10;;;;;;5037177;28;20412;-85
2021/07/03 12:42:07;;;;;;;7.63;4.85;;;24.00;94.80;;;;;;5036789;28;20051;-85
2021/07/03 12:45:05;;;;;;;6.90;3.95;;;24.10;94.40;;;;;;5052015;28;20041;-86
2021/07/03 12:48:03;;;;;;;5.50;3.85;;;24.10;95.50;;;;;;5037192;28;20502;-86
2021/07/03 12:50:58;;;;;;;7.97;4.30;;;24.30;97.90;;;;;;5038431;28;20577;-85
2021/07/03 12:53:47;;;;;;;7.88;4.03;;;24.60;96.20;;;;;;5037368;28;20045;-84
2021/07/03 12:56:35;;;;;;;7.60;4.53;;;24.80;97.00;;;;;;5051415;28;20049;-85
2021/07/03 12:59:33;;;;;;;6.93;4.53;;;25.00;96.10;;;;;;5038048;28;20049;-85
2021/07/03 13:02:20;;;;;;;5.97;3.72;;;25.10;93.80;;;;;;5052522;28;20049;-86
2021/07/03 13:05:10;;;;;;;5.55;3.50;;;25.00;94.70;;;;;;5039903;28;20044;-87
2021/07/03 13:07:57;;;;;;;7.40;3.72;;;24.90;94.40;;;;;;5041948;28;20052;-86
2021/07/03 13:10:46;;;;;;;6.60;4.28;;;24.70;94.70;;;;;;5041326;28;20072;-85
2021/07/03 13:13:33;;;;;;;8.15;4.68;;;24.20;92.80;;;;;;5034800;28;20180;-86
2021/07/03 13:16:20;;;;;;;6.80;4.00;;;24.20;92.60;;;;;;5034686;28;20072;-86
2021/07/03 13:19:07;;;;;;;5.05;3.53;;;24.00;92.40;;;;;;5036459;28;20045;-85
2021/07/03 13:21:54;;;;;;;6.50;3.63;;;24.10;93.80;;;;;;5037208;28;20057;-85
2021/07/03 13:24:43;;;;;;;6.35;4.10;;;24.50;94.00;;;;;;5035197;28;20095;-85
2021/07/03 13:27:31;;;;;;;5.87;3.53;;;24.90;95.30;;;;;;5034049;28;20192;-86
2021/07/03 13:30:19;;;;;;;7.38;3.47;;;25.60;94.90;;;;;;5035283;28;20041;-85
2021/07/03 13:33:06;;;;;;;5.60;3.47;;;26.20;94.10;;;;;;5047560;28;20045;-86
2021/07/03 13:35:53;;;;;;;6.32;3.30;;;26.60;92.20;;;;;;5041083;28;20131;-86
2021/07/03 13:38:40;;;;;;;5.13;3.58;;;28.10;90.80;;;;;;5058452;28;20128;-86
2021/07/03 13:41:28;;;;;;;5.15;2.95;;;26.40;90.80;;;;;;5061384;28;20049;-87
2021/07/03 13:44:16;;;;;;;6.75;3.70;;;26.50;90.50;;;;;;5060104;28;20141;-87
2021/07/03 13:47:03;;;;;;;5.33;3.57;;;26.40;90.70;;;;;;5073680;28;20194;-86
2021/07/03 13:49:50;;;;;;;5.35;3.17;;;26.20;90.00;;;;;;5060628;28;20652;-86
2021/07/03 13:52:37;;;;;;;6.63;3.50;;;26.00;89.40;;;;;;5061581;28;20049;-87
2021/07/03 13:55:25;;;;;;;5.43;3.42;;;26.90;90.40;;;;;;5061801;28;20037;-86
2021/07/03 13:58:13;;;;;;;6.00;3.30;;;26.30;90.20;;;;;;5062017;28;20051;-87
2021/07/03 14:01:04;;;;;;;5.25;2.88;;;26.60;89.80;;;;;;5061208;28;20048;-87
2021/07/03 14:03:51;;;;;;;5.38;3.20;;;26.40;89.30;;;;;;5061518;28;20040;-86
2021/07/03 14:06:39;;;;;;;6.53;3.20;;;26.20;89.90;;;;;;5061273;28;20056;-87
2021/07/03 14:09:26;;;;;;;5.65;3.42;;;26.30;89.80;;;;;;5076600;28;20048;-86
2021/07/03 14:12:13;;;;;;;4.63;2.88;;;26.20;87.30;;;;;;5061666;28;20048;-87
2021/07/03 14:15:01;;;;;;;5.85;3.25;;;26.40;88.10;;;;;;5060444;28;20133;-85
2021/07/03 14:17:50;;;;;;;5.28;2.92;;;26.60;87.10;;;;;;5077152;28;20056;-85
2021/07/03 14:20:37;;;;;;;5.43;2.67;;;27.10;90.00;;;;;;5061156;28;20113;-85
2021/07/03 14:23:24;;;;;;;7.65;3.28;;;27.10;86.70;;;;;;5062197;28;20040;-87